Skipwith, Virginia
Current Conditions -  °F | °C
As of 10:55 PM on Wednesday 17 Dec 2014 (Local Time) from KCXE Reporting Station
Clear Clear  
Wind Chill: 43°   Ceiling: Unl
Heat Index: 45°   Visibility: 10mi
Dew Point: 32°   Wind: 5mph
Humidity: 60%   Direction: 280°W
Pressure: 30.06"   Gusts: NA
Location:  36.72°N, 78.52°W
Report Text: KCXE 180355Z AUTO 28004KT 10SM CLR 07/00 A3006 RMK AO1 T00740000 401440029
Loading
Personal Weather Stations






























Interactive Weather Map New forecast layout! Learn more

10-Day Weather Forecast

Advertisements
Track Severe Weather on mobile